createdAt,value
2023-01-03T00:01:58.711Z,72.93
2023-01-03T00:04:25.323Z,76.30
2023-01-03T00:07:10.239Z,68.22
2023-01-03T00:09:36.669Z,67.95
2023-01-03T00:12:25.582Z,75.10
2023-01-03T00:14:55.302Z,82.20
2023-01-03T00:17:22.147Z,79.20
2023-01-03T00:19:48.973Z,85.15
2023-01-03T00:22:16.146Z,87.60
2023-01-03T00:24:43.314Z,89.93
2023-01-03T00:27:09.871Z,88.28
2023-01-03T00:29:36.354Z,84.40
2023-01-03T00:32:03.288Z,84.88
2023-01-03T00:34:30.335Z,82.95
2023-01-03T00:36:57.046Z,80.32
2023-01-03T00:39:23.675Z,81.82
2023-01-03T00:41:50.151Z,79.95
2023-01-03T00:44:16.687Z,72.13
2023-01-03T00:46:43.534Z,76.68
2023-01-03T00:49:10.539Z,72.30
2023-01-03T00:51:37.848Z,69.85
2023-01-03T00:54:05.287Z,75.00
2023-01-03T00:56:33.345Z,74.13
2023-01-03T00:59:00.099Z,75.57
2023-01-03T01:01:26.683Z,69.35
2023-01-03T01:03:59.990Z,71.72
2023-01-03T01:06:28.118Z,70.75
2023-01-03T01:08:55.679Z,65.85
2023-01-03T01:11:22.414Z,78.82
2023-01-03T01:13:49.563Z,70.00
2023-01-03T01:16:17.795Z,65.82
2023-01-03T01:18:45.876Z,68.30
2023-01-03T01:21:14.237Z,73.40
2023-01-03T01:23:40.959Z,64.90
2023-01-03T01:26:08.524Z,65.55
2023-01-03T01:28:35.011Z,71.32
2023-01-03T01:31:02.557Z,69.05
2023-01-03T01:33:29.402Z,69.57
2023-01-03T01:35:55.799Z,68.85
2023-01-03T01:38:22.335Z,69.97
2023-01-03T01:40:48.814Z,73.32
2023-01-03T01:43:37.166Z,71.32
2023-01-03T01:46:17.922Z,68.82
2023-01-03T01:48:44.551Z,66.13
2023-01-03T01:51:11.878Z,65.45
2023-01-03T01:53:40.347Z,64.20
2023-01-03T01:56:13.627Z,70.20
2023-01-03T01:58:41.488Z,69.85
2023-01-03T02:01:12.351Z,69.43
2023-01-03T02:03:39.870Z,67.90
2023-01-03T02:06:08.221Z,70.78
2023-01-03T02:08:34.727Z,85.55
2023-01-03T02:11:16.452Z,87.63
2023-01-03T02:13:45.945Z,77.13
2023-01-03T02:16:15.223Z,87.50
2023-01-03T02:18:46.841Z,94.55
2023-01-03T02:21:18.273Z,88.30
2023-01-03T02:24:02.049Z,84.18
2023-01-03T02:26:36.633Z,79.93
2023-01-03T02:29:20.426Z,81.57
2023-01-03T02:31:57.425Z,80.72
2023-01-03T02:34:29.595Z,76.43
2023-01-03T02:37:00.883Z,77.20
2023-01-03T02:39:27.362Z,71.25
2023-01-03T02:42:22.900Z,77.45
2023-01-03T02:44:54.292Z,75.97
2023-01-03T02:47:21.469Z,76.15
2023-01-03T02:49:50.574Z,80.10
2023-01-03T02:52:29.776Z,75.07
2023-01-03T02:55:14.899Z,79.88
2023-01-03T02:57:47.172Z,68.32
2023-01-03T03:00:15.512Z,80.65
2023-01-03T03:02:45.911Z,73.88
2023-01-03T03:05:14.557Z,77.15
2023-01-03T03:07:41.032Z,71.10
2023-01-03T03:10:27.278Z,78.53
2023-01-03T03:13:13.906Z,78.78
2023-01-03T03:15:49.987Z,76.45
2023-01-03T03:18:22.099Z,77.30
2023-01-03T03:21:06.939Z,79.32
2023-01-03T03:23:53.819Z,84.90
2023-01-03T03:26:23.036Z,75.57
2023-01-03T03:28:54.995Z,77.15
2023-01-03T03:34:00.437Z,77.32
2023-01-03T03:36:41.654Z,73.15
2023-01-03T03:39:29.286Z,81.80
2023-01-03T03:42:15.728Z,75.05
2023-01-03T03:45:02.175Z,77.75
2023-01-03T03:47:51.909Z,75.63
2023-01-03T03:50:34.688Z,85.75
2023-01-03T03:53:04.214Z,79.80
2023-01-03T03:55:33.241Z,77.13
2023-01-03T03:58:15.220Z,86.90
2023-01-03T04:00:42.258Z,83.20
2023-01-03T04:03:09.687Z,85.03
2023-01-03T04:05:40.768Z,83.63
2023-01-03T04:08:07.548Z,62.63
2023-01-03T04:10:37.997Z,78.72
2023-01-03T04:13:05.005Z,78.18
2023-01-03T04:15:31.504Z,81.95
2023-01-03T04:17:58.091Z,80.53
2023-01-03T04:20:24.547Z,86.22
2023-01-03T04:22:51.035Z,87.30
2023-01-03T04:25:17.455Z,89.38
2023-01-03T04:27:44.476Z,83.80
2023-01-03T04:30:11.592Z,83.57
2023-01-03T04:32:38.201Z,83.03
2023-01-03T04:35:04.806Z,89.75
2023-01-03T04:37:31.311Z,77.50
2023-01-03T04:39:57.763Z,84.45
2023-01-03T04:42:43.096Z,99.25
2023-01-03T04:45:09.896Z,89.78
2023-01-03T04:47:36.302Z,75.28
2023-01-03T04:50:02.795Z,82.35
2023-01-03T04:52:29.696Z,82.65
2023-01-03T04:54:56.289Z,85.93
2023-01-03T04:57:22.809Z,91.15
2023-01-03T04:59:49.239Z,88.45
2023-01-03T05:02:15.811Z,89.20
2023-01-03T05:04:42.462Z,85.68
2023-01-03T05:07:09.015Z,89.03
2023-01-03T05:09:35.467Z,83.90
2023-01-03T05:12:01.937Z,86.07
2023-01-03T05:14:28.361Z,86.85
2023-01-03T05:16:54.843Z,83.82
2023-01-03T05:19:21.329Z,88.68
2023-01-03T05:22:06.380Z,82.78
2023-01-03T05:24:51.279Z,83.32
2023-01-03T05:27:17.814Z,87.82
2023-01-03T05:29:44.454Z,85.88
2023-01-03T05:32:11.086Z,87.32
2023-01-03T05:34:37.610Z,77.00
2023-01-03T05:37:04.036Z,73.32
2023-01-03T05:39:30.535Z,75.78
2023-01-03T05:41:59.939Z,74.88
2023-01-03T05:44:27.135Z,69.18
2023-01-03T05:46:53.671Z,76.63
2023-01-03T05:49:20.088Z,76.13
2023-01-03T05:51:46.509Z,83.53
2023-01-03T05:54:14.374Z,81.20
2023-01-03T05:56:40.930Z,80.10
2023-01-03T05:59:07.954Z,88.90
2023-01-03T06:01:34.532Z,77.22
2023-01-03T06:04:01.169Z,75.18
2023-01-03T06:06:27.788Z,78.15
2023-01-03T06:08:54.904Z,75.80
2023-01-03T06:11:21.588Z,76.40
2023-01-03T06:13:47.991Z,72.07
2023-01-03T06:16:38.527Z,73.85
2023-01-03T06:19:05.775Z,71.85
2023-01-03T06:21:32.416Z,71.70
2023-01-03T06:23:58.847Z,70.28
2023-01-03T06:26:25.504Z,72.10
2023-01-03T06:28:52.077Z,75.90
2023-01-03T06:31:19.041Z,69.32
2023-01-03T06:33:45.637Z,68.65
2023-01-03T06:36:13.227Z,71.35
2023-01-03T06:38:40.109Z,66.35
2023-01-03T06:41:06.956Z,69.40
2023-01-03T06:43:33.433Z,65.53
2023-01-03T06:46:19.333Z,61.97
2023-01-03T06:49:04.552Z,64.30
2023-01-03T06:51:49.942Z,63.80
2023-01-03T06:54:22.230Z,59.40
2023-01-03T06:56:49.196Z,58.25
2023-01-03T06:59:15.644Z,55.50
2023-01-03T07:01:42.188Z,56.80
2023-01-03T07:04:08.814Z,55.95
2023-01-03T07:06:35.303Z,55.80
2023-01-03T07:09:01.861Z,55.25
2023-01-03T07:11:28.331Z,47.15
2023-01-03T07:14:00.757Z,49.33
2023-01-03T07:16:28.642Z,44.85
2023-01-03T07:18:55.845Z,43.58
2023-01-03T07:21:23.121Z,43.20
2023-01-03T07:23:49.566Z,39.70
2023-01-03T07:26:15.950Z,41.40
2023-01-03T07:28:42.390Z,38.83
2023-01-03T07:31:08.924Z,37.50
2023-01-03T07:33:37.305Z,37.72
2023-01-03T07:36:11.290Z,37.65
2023-01-03T07:38:38.840Z,36.58
2023-01-03T07:41:05.880Z,37.00
2023-01-03T07:43:38.305Z,35.75
2023-01-03T07:46:25.096Z,34.25
2023-01-03T07:48:52.444Z,34.55
2023-01-03T07:51:20.578Z,32.60
2023-01-03T07:53:49.950Z,33.08
2023-01-03T07:56:19.374Z,34.70
2023-01-03T07:58:45.987Z,30.33
2023-01-03T08:01:14.743Z,31.40
2023-01-03T08:03:41.801Z,29.70
2023-01-03T08:06:10.143Z,27.50
2023-01-03T08:08:36.894Z,23.92
2023-01-03T08:11:22.785Z,25.33
2023-01-03T08:13:50.196Z,24.60
2023-01-03T08:16:17.906Z,21.60
2023-01-03T08:18:45.240Z,21.30
2023-01-03T08:21:14.405Z,19.92
2023-01-03T08:23:42.265Z,20.30
2023-01-03T08:26:08.691Z,18.60
2023-01-03T08:28:35.507Z,17.40
2023-01-03T08:31:04.326Z,15.68
2023-01-03T08:33:35.004Z,14.75
2023-01-03T08:36:04.192Z,12.50
2023-01-03T08:38:37.292Z,12.77
2023-01-03T15:07:04.771Z,10.82
2023-01-03T15:09:35.638Z,11.02
2023-01-03T15:12:05.659Z,12.00
2023-01-03T15:14:34.057Z,11.90
2023-01-03T15:17:07.226Z,13.80
2023-01-03T15:19:36.454Z,12.88
2023-01-03T15:22:08.861Z,16.73
2023-01-03T15:24:43.260Z,19.63
2023-01-03T15:27:30.616Z,13.40
2023-01-03T15:30:13.910Z,12.60
2023-01-03T15:32:53.897Z,14.10
2023-01-03T15:35:21.585Z,12.65
2023-01-03T15:37:51.816Z,13.07
2023-01-03T15:40:19.400Z,12.75
2023-01-03T15:43:04.647Z,14.98
2023-01-03T15:45:36.368Z,14.60
2023-01-03T15:48:04.970Z,14.68
2023-01-03T15:50:45.551Z,25.77
2023-01-03T15:53:22.637Z,18.17
2023-01-03T15:55:54.589Z,15.35
2023-01-03T15:58:21.135Z,16.17
2023-01-03T16:00:49.621Z,18.42
2023-01-03T16:03:17.704Z,22.15
2023-01-03T16:05:45.576Z,22.73
2023-01-03T16:08:26.239Z,21.23
2023-01-03T16:10:53.886Z,24.30
2023-01-03T16:13:21.180Z,21.45
2023-01-03T16:15:48.762Z,23.73
2023-01-03T16:18:16.747Z,26.05
2023-01-03T16:20:44.584Z,25.48
2023-01-03T16:23:19.259Z,25.52
2023-01-03T16:25:46.429Z,24.15
2023-01-03T16:28:12.910Z,23.55
2023-01-03T16:30:40.697Z,25.02
2023-01-03T16:33:09.241Z,24.35
2023-01-03T16:35:36.613Z,24.33
2023-01-03T16:38:03.071Z,24.20
2023-01-03T16:40:30.292Z,25.55
2023-01-03T16:42:56.815Z,25.25
2023-01-03T16:45:24.106Z,27.23
2023-01-03T16:47:51.952Z,29.65
2023-01-03T16:50:20.807Z,26.20
2023-01-03T16:52:48.451Z,28.20
2023-01-03T16:55:23.652Z,29.75
2023-01-03T16:57:54.182Z,30.70
2023-01-03T17:00:24.700Z,32.47
2023-01-03T17:02:51.613Z,32.85
2023-01-03T17:05:18.610Z,32.10
2023-01-03T17:07:47.168Z,47.45
2023-01-03T17:10:21.643Z,34.80
2023-01-03T17:12:48.811Z,39.08
2023-01-03T17:15:15.295Z,43.53
2023-01-03T17:17:42.502Z,42.05
2023-01-03T17:20:17.395Z,38.80
2023-01-03T17:22:55.549Z,30.52
2023-01-03T17:25:22.104Z,30.63
2023-01-03T17:27:52.733Z,30.95
2023-01-03T17:30:20.751Z,41.13
2023-01-03T17:32:48.032Z,36.17
2023-01-03T17:35:15.418Z,36.95
2023-01-03T17:38:14.177Z,41.30
2023-01-03T17:40:33.983Z,41.13
2023-01-03T17:43:02.357Z,42.97
2023-01-03T17:45:47.898Z,40.40
2023-01-03T17:48:35.537Z,36.78
2023-01-03T17:51:02.157Z,37.03
2023-01-03T17:53:31.603Z,37.42
2023-01-03T17:55:58.055Z,36.42
2023-01-03T17:58:44.373Z,36.08
2023-01-03T18:01:14.083Z,31.95
2023-01-03T18:03:43.583Z,35.25
2023-01-03T18:06:15.371Z,35.55
2023-01-03T18:08:42.007Z,45.65
2023-01-03T18:11:14.931Z,39.55
2023-01-03T18:13:41.517Z,36.65
2023-01-03T18:16:13.456Z,36.05
2023-01-03T18:18:39.928Z,36.17
2023-01-03T18:21:17.585Z,36.42
2023-01-03T18:23:44.539Z,40.83
2023-01-03T18:26:13.174Z,38.63
2023-01-03T18:28:40.532Z,41.90
2023-01-03T18:31:07.426Z,40.10
2023-01-03T18:33:36.432Z,37.72
2023-01-03T18:36:02.893Z,53.08
2023-01-03T18:38:30.567Z,39.60
2023-01-03T18:41:04.396Z,36.30
2023-01-03T18:43:31.443Z,34.35
2023-01-03T18:45:58.765Z,33.65
2023-01-03T18:48:25.324Z,34.40
2023-01-03T18:50:58.359Z,37.40
2023-01-03T18:53:27.470Z,35.90
2023-01-03T18:55:53.955Z,36.38
2023-01-03T18:58:25.811Z,34.10
2023-01-03T19:03:23.874Z,49.30
2023-01-03T19:05:50.929Z,30.27
2023-01-03T19:08:18.213Z,31.42
2023-01-03T19:10:46.050Z,35.70
2023-01-03T19:13:24.545Z,33.50
2023-01-03T19:15:51.915Z,33.47
2023-01-03T19:18:18.466Z,32.92
2023-01-03T19:20:46.409Z,31.10
2023-01-03T19:23:20.076Z,32.15
2023-01-03T19:25:47.444Z,33.53
2023-01-03T19:28:14.196Z,32.00
2023-01-03T19:30:44.424Z,38.55
2023-01-03T19:33:16.526Z,42.63
2023-01-03T19:35:43.562Z,42.90
2023-01-03T19:38:11.371Z,40.67
2023-01-03T19:40:38.797Z,41.63
2023-01-03T19:43:05.540Z,37.63
2023-01-03T19:45:35.349Z,37.95
2023-01-03T19:48:03.658Z,35.38
2023-01-03T19:50:32.551Z,33.13
2023-01-03T19:52:59.050Z,33.40
2023-01-03T19:55:28.408Z,33.15
2023-01-03T19:57:55.089Z,34.35
2023-01-03T20:00:24.449Z,34.35
2023-01-03T20:02:53.126Z,31.80
2023-01-03T20:05:19.636Z,32.40
2023-01-03T20:07:47.337Z,35.25
2023-01-03T20:10:14.978Z,32.00
2023-01-03T20:12:43.310Z,32.85
2023-01-03T20:15:15.448Z,30.90
2023-01-03T20:17:42.649Z,32.33
2023-01-03T20:20:12.472Z,32.40
2023-01-03T20:25:28.444Z,34.65
2023-01-03T20:27:56.165Z,35.13
2023-01-03T20:30:25.165Z,35.30
2023-01-03T20:32:52.038Z,32.28
2023-01-03T20:38:10.038Z,37.83
2023-01-03T20:40:37.403Z,35.88
2023-01-03T20:43:05.508Z,38.45
2023-01-03T20:45:34.397Z,33.92
2023-01-03T20:48:00.834Z,34.08
2023-01-03T20:50:30.462Z,36.30
2023-01-03T20:52:57.993Z,38.72
2023-01-03T20:55:25.610Z,31.05
2023-01-03T20:57:52.903Z,27.40
2023-01-03T21:00:21.507Z,22.48
2023-01-03T21:02:50.481Z,21.17
2023-01-03T21:05:17.617Z,20.48
2023-01-03T21:08:03.877Z,21.52
2023-01-03T21:10:33.382Z,22.48
2023-01-03T21:13:06.504Z,22.23
2023-01-03T21:15:33.403Z,21.30
2023-01-03T21:17:59.929Z,22.00
2023-01-03T21:20:29.590Z,20.67
2023-01-03T21:22:57.648Z,21.88
2023-01-03T21:25:26.370Z,21.48
2023-01-03T21:27:52.930Z,22.98
2023-01-03T21:30:20.971Z,20.20
2023-01-03T21:32:47.856Z,20.17
2023-01-03T21:35:15.717Z,21.65
2023-01-03T21:37:44.624Z,20.25
2023-01-03T21:40:18.904Z,19.85
2023-01-03T21:43:05.053Z,19.73
2023-01-03T21:45:37.863Z,18.83
2023-01-03T21:48:08.321Z,21.60
2023-01-03T21:50:37.527Z,23.92
2023-01-03T21:53:07.183Z,21.65
2023-01-03T21:55:34.753Z,22.17
2023-01-03T21:58:01.222Z,20.25
2023-01-03T22:00:30.280Z,20.10
2023-01-03T22:03:15.489Z,20.25
2023-01-03T22:05:42.744Z,18.80
2023-01-03T22:08:09.285Z,19.20
2023-01-03T22:10:37.907Z,19.20
2023-01-03T22:13:05.869Z,17.83
2023-01-03T22:15:35.491Z,18.30
2023-01-03T22:18:01.882Z,18.83
2023-01-03T22:20:34.695Z,17.75
2023-01-03T22:23:05.334Z,18.95
2023-01-03T22:25:31.768Z,19.83
2023-01-03T22:27:59.460Z,20.65
2023-01-03T22:30:25.959Z,19.85
2023-01-03T22:32:52.505Z,20.50
2023-01-03T22:35:19.861Z,21.60
2023-01-03T22:37:46.480Z,19.95
2023-01-03T22:40:17.109Z,20.02
2023-01-03T22:42:43.532Z,21.15
2023-01-03T22:45:10.244Z,21.95
2023-01-03T22:47:38.080Z,21.10
2023-01-03T22:50:05.996Z,21.88
2023-01-03T22:52:33.121Z,23.27
2023-01-03T22:54:59.570Z,21.95
2023-01-03T22:57:26.201Z,23.05
2023-01-03T22:59:53.351Z,25.63
2023-01-03T23:02:24.638Z,25.17
2023-01-03T23:04:55.605Z,24.35
2023-01-03T23:07:22.039Z,23.83
2023-01-03T23:09:48.570Z,26.20
2023-01-03T23:12:34.178Z,28.52
2023-01-03T23:15:00.628Z,26.40
2023-01-03T23:17:46.083Z,27.90
2023-01-03T23:20:15.055Z,28.02
2023-01-03T23:22:44.636Z,29.33
2023-01-03T23:25:11.058Z,30.38
2023-01-03T23:27:37.526Z,34.13
2023-01-03T23:30:04.858Z,33.50
2023-01-03T23:32:32.089Z,32.13
2023-01-03T23:34:59.410Z,34.92
2023-01-03T23:37:26.575Z,32.83
2023-01-03T23:39:53.199Z,35.45
2023-01-03T23:42:19.653Z,33.35
2023-01-03T23:44:46.133Z,33.13
2023-01-03T23:47:12.971Z,34.42
2023-01-03T23:49:39.644Z,33.15
2023-01-03T23:52:06.223Z,34.28
2023-01-03T23:54:32.691Z,35.50
2023-01-03T23:56:59.194Z,34.22
2023-01-03T23:59:25.678Z,33.42
